Time;durP1;ratioP1;P1;durP2;ratioP2;P2;SDS_P1;SDS_P2;PMS_P1;PMS_P2;Temp;Humidity;BMP_temperature;BMP_pressure;BME280_temperature;BME280_humidity;BME280_pressure;Samples;Min_cycle;Max_cycle;Signal;HPM_P1;HPM_P2
2021/07/01 00:00:08;;;;;;;4.72;3.58;;;11.90;99.90;;;;;;6285029;28;20458;-81
2021/07/01 00:03:09;;;;;;;4.22;3.80;;;12.50;99.90;;;;;;6301779;28;20466;-81
2021/07/01 00:06:10;;;;;;;4.03;3.47;;;;;;;;;;6319248;28;20036;-82
2021/07/01 00:09:15;;;;;;;5.38;4.13;;;;;;;;;;6284529;28;20454;-82
2021/07/01 00:12:16;;;;;;;8.00;4.40;;;;;;;;;;6301966;28;20027;-82
2021/07/01 00:15:19;;;;;;;5.93;3.80;;;12.60;99.90;;;;;;6301450;28;20028;-82
2021/07/01 00:18:19;;;;;;;6.90;3.72;;;12.70;99.90;;;;;;6285101;28;20024;-81
2021/07/01 00:21:20;;;;;;;4.93;4.03;;;;;;;;;;6267655;28;21035;-80
2021/07/01 00:24:21;;;;;;;3.92;3.42;;;12.70;99.90;;;;;;6318581;28;20043;-80
2021/07/01 00:27:22;;;;;;;4.63;3.80;;;12.70;99.90;;;;;;6283772;28;20169;-80
2021/07/01 00:30:22;;;;;;;6.13;4.05;;;12.70;99.90;;;;;;6283922;28;20449;-82
2021/07/01 00:33:23;;;;;;;5.32;4.15;;;12.60;99.90;;;;;;6284119;28;20024;-82
2021/07/01 00:36:24;;;;;;;5.18;4.03;;;12.60;99.90;;;;;;6300905;28;20405;-82
2021/07/01 00:39:24;;;;;;;5.90;4.38;;;12.80;99.90;;;;;;6283857;28;20047;-82
2021/07/01 00:42:25;;;;;;;6.82;4.53;;;12.60;99.90;;;;;;6283685;28;20110;-81
2021/07/01 00:45:25;;;;;;;4.60;3.90;;;12.60;99.90;;;;;;6267184;28;20040;-81
2021/07/01 00:48:26;;;;;;;5.18;4.22;;;12.60;99.90;;;;;;6283622;28;20700;-81
2021/07/01 00:51:27;;;;;;;4.30;3.90;;;;;;;;;;6300417;28;20500;-82
2021/07/01 00:54:28;;;;;;;5.00;4.50;;;12.50;99.90;;;;;;6299986;28;20028;-82
2021/07/01 00:57:28;;;;;;;5.45;4.53;;;12.60;99.90;;;;;;6283584;28;20067;-81
2021/07/01 01:03:47;;;;;;;5.88;4.13;;;12.50;99.90;;;;;;6302895;28;20492;-82
2021/07/01 01:06:48;;;;;;;5.75;4.32;;;12.60;99.90;;;;;;6266487;28;20032;-82
2021/07/01 01:09:49;;;;;;;5.63;4.65;;;12.70;99.90;;;;;;6266694;28;20024;-83
2021/07/01 01:12:49;;;;;;;5.97;4.72;;;12.50;99.90;;;;;;6283101;28;20557;-82
2021/07/01 01:15:52;;;;;;;7.03;5.20;;;12.60;99.90;;;;;;6283025;28;20079;-82
2021/07/01 01:18:53;;;;;;;5.25;4.75;;;;;;;;;;6283507;28;20027;-82
2021/07/01 01:21:53;;;;;;;5.50;4.90;;;;;;;;;;6300175;28;20032;-81
2021/07/01 01:24:54;;;;;;;5.18;4.47;;;;;;;;;;6282912;28;20060;-82
2021/07/01 01:27:55;;;;;;;5.63;4.88;;;12.60;99.90;;;;;;6299807;28;20024;-82
2021/07/01 01:30:56;;;;;;;5.57;5.00;;;;;;;;;;6266348;28;20027;-82
2021/07/01 01:33:57;;;;;;;6.13;4.90;;;12.60;99.90;;;;;;6283162;28;20024;-82
2021/07/01 01:36:57;;;;;;;6.07;5.47;;;12.60;99.90;;;;;;6266097;28;20035;-82
2021/07/01 01:39:58;;;;;;;6.25;5.60;;;12.70;99.90;;;;;;6283272;28;20031;-82
2021/07/01 01:42:59;;;;;;;5.75;4.95;;;12.70;99.90;;;;;;6282942;28;20070;-81
2021/07/01 01:45:59;;;;;;;5.28;4.78;;;12.70;99.90;;;;;;6317469;28;20699;-82
2021/07/01 01:49:00;;;;;;;5.93;5.00;;;12.70;99.90;;;;;;6299215;28;20024;-82
2021/07/01 01:52:01;;;;;;;7.15;5.03;;;;;;;;;;6299636;28;20036;-81
2021/07/01 01:55:01;;;;;;;6.60;5.22;;;12.70;99.90;;;;;;6317665;28;20028;-82
2021/07/01 01:58:02;;;;;;;8.15;5.28;;;12.50;99.90;;;;;;6282705;28;20042;-82
2021/07/01 02:01:03;;;;;;;8.43;5.72;;;12.70;99.90;;;;;;6282421;28;20031;-82
2021/07/01 02:04:04;;;;;;;6.68;5.55;;;12.80;99.90;;;;;;6299508;28;20032;-83
2021/07/01 02:07:04;;;;;;;7.80;5.47;;;12.80;99.90;;;;;;6282657;28;20366;-82
2021/07/01 02:10:10;;;;;;;8.27;5.72;;;12.80;99.90;;;;;;6265637;28;20465;-82
2021/07/01 02:13:11;;;;;;;5.82;5.20;;;12.80;99.90;;;;;;6283330;28;20036;-82
2021/07/01 02:16:12;;;;;;;8.70;6.00;;;12.90;99.90;;;;;;6266074;28;20185;-82
2021/07/01 02:19:13;;;;;;;6.43;5.22;;;12.90;99.90;;;;;;6282382;28;20036;-81
2021/07/01 02:22:13;;;;;;;6.72;5.15;;;12.90;99.90;;;;;;6298859;28;20051;-83
2021/07/01 02:25:14;;;;;;;6.20;5.38;;;12.80;99.90;;;;;;6282479;28;20485;-82
2021/07/01 02:28:15;;;;;;;6.50;5.35;;;13.10;99.90;;;;;;6265940;28;20477;-82
2021/07/01 02:31:15;;;;;;;7.63;5.25;;;12.90;99.90;;;;;;6265709;28;20031;-82
2021/07/01 02:34:16;;;;;;;6.85;5.03;;;12.90;99.90;;;;;;6265419;28;20024;-82
2021/07/01 02:37:17;;;;;;;7.03;4.90;;;12.90;99.90;;;;;;6282544;28;20074;-82
2021/07/01 02:40:17;;;;;;;5.70;5.20;;;12.90;99.90;;;;;;6266061;28;20527;-82
2021/07/01 02:43:18;;;;;;;5.25;4.75;;;13.00;99.90;;;;;;6282575;28;20032;-82
2021/07/01 02:46:18;;;;;;;5.10;4.60;;;13.20;99.90;;;;;;6282254;28;20488;-82
2021/07/01 02:49:19;;;;;;;6.45;5.00;;;13.00;99.90;;;;;;6285727;28;20027;-82
2021/07/01 02:52:20;;;;;;;7.88;4.50;;;13.30;99.90;;;;;;6303088;28;20065;-82
2021/07/01 02:55:20;;;;;;;6.10;4.38;;;13.80;99.90;;;;;;6270060;28;20026;-82
2021/07/01 02:58:21;;;;;;;4.72;4.22;;;;;;;;;;6286934;28;20024;-82
2021/07/01 03:01:22;;;;;;;6.78;4.55;;;;;;;;;;6320923;28;20377;-82
2021/07/01 03:04:23;;;;;;;5.25;4.30;;;13.30;99.90;;;;;;6302587;28;20051;-81
2021/07/01 03:07:23;;;;;;;8.63;4.80;;;13.40;99.90;;;;;;6286011;28;20038;-82
2021/07/01 03:10:24;;;;;;;8.65;4.95;;;13.00;99.90;;;;;;6286114;28;20034;-82
2021/07/01 03:13:25;;;;;;;7.35;5.07;;;13.40;99.90;;;;;;6302948;28;20048;-82
2021/07/01 03:16:26;;;;;;;5.10;4.60;;;;;;;;;;6268980;28;20031;-81
2021/07/01 03:19:26;;;;;;;5.40;4.88;;;13.30;99.90;;;;;;6303126;28;20529;-81
2021/07/01 03:22:27;;;;;;;6.07;5.10;;;13.30;99.90;;;;;;6285305;28;20036;-81
2021/07/01 03:25:27;;;;;;;9.63;4.97;;;13.00;99.90;;;;;;6285808;28;20144;-81
2021/07/01 03:28:28;;;;;;;7.63;6.00;;;;;;;;;;6302262;28;20036;-81
2021/07/01 03:31:29;;;;;;;9.82;5.68;;;;;;;;;;6320672;28;20019;-82
2021/07/01 03:34:30;;;;;;;9.35;6.57;;;;;;;;;;6301954;28;20386;-81
2021/07/01 03:37:31;;;;;;;7.72;6.95;;;;;;;;;;6302099;28;20070;-81
2021/07/01 03:40:32;;;;;;;6.13;5.53;;;;;;;;;;6302026;28;20082;-81
2021/07/01 03:43:38;;;;;;;6.85;5.50;;;;;;;;;;6301744;28;20474;-81
2021/07/01 03:46:39;;;;;;;8.63;5.50;;;;;;;;;;6302957;28;20028;-81
2021/07/01 03:49:40;;;;;;;6.68;5.78;;;12.80;99.90;;;;;;6301600;28;20024;-81
2021/07/01 03:52:41;;;;;;;6.07;4.93;;;;;;;;;;6268453;28;20062;-81
2021/07/01 03:55:42;;;;;;;14.45;5.97;;;;;;;;;;6319670;28;20416;-81
2021/07/01 03:58:42;;;;;;;6.60;5.07;;;13.00;99.90;;;;;;6285376;28;20054;-81
2021/07/01 04:01:43;;;;;;;11.38;4.50;;;13.10;99.90;;;;;;6301454;28;20024;-81
2021/07/01 04:04:44;;;;;;;5.22;4.72;;;13.40;99.90;;;;;;6284916;28;20040;-80
2021/07/01 04:07:44;;;;;;;6.47;5.15;;;13.10;99.90;;;;;;6284793;28;20123;-81
2021/07/01 04:10:45;;;;;;;6.20;4.53;;;13.20;99.90;;;;;;6301082;28;20035;-81
2021/07/01 04:13:46;;;;;;;6.35;4.85;;;13.10;99.90;;;;;;6301050;28;20039;-81
2021/07/01 04:16:46;;;;;;;5.20;4.70;;;13.10;99.90;;;;;;6284170;28;20032;-81
2021/07/01 04:19:47;;;;;;;9.35;5.05;;;13.40;99.90;;;;;;6284903;28;20031;-82
2021/07/01 04:22:47;;;;;;;6.25;5.45;;;13.20;99.90;;;;;;6301198;28;20074;-82
2021/07/01 04:25:50;;;;;;;5.53;4.85;;;13.20;99.90;;;;;;6300917;28;20147;-82
2021/07/01 04:28:51;;;;;;;11.90;5.72;;;13.20;99.90;;;;;;6284813;28;20396;-82
2021/07/01 04:31:51;;;;;;;10.10;5.25;;;13.20;99.90;;;;;;6284041;28;20032;-81
2021/07/01 04:34:52;;;;;;;6.47;5.03;;;13.30;99.90;;;;;;6300154;28;20081;-82
2021/07/01 04:37:53;;;;;;;5.15;4.45;;;13.40;99.90;;;;;;6283973;28;20055;-77
2021/07/01 04:40:55;;;;;;;5.82;4.50;;;13.20;99.90;;;;;;6300517;28;20035;-76
2021/07/01 04:43:56;;;;;;;5.57;4.75;;;13.30;99.90;;;;;;6318725;28;20384;-75
2021/07/01 04:46:56;;;;;;;4.90;4.40;;;13.10;99.90;;;;;;6318364;28;20036;-75
2021/07/01 04:49:57;;;;;;;5.40;4.90;;;13.40;99.90;;;;;;6318203;28;20020;-76
2021/07/01 04:52:58;;;;;;;7.18;4.60;;;13.40;99.90;;;;;;6318413;28;20036;-77
2021/07/01 04:55:58;;;;;;;5.00;4.50;;;13.40;99.90;;;;;;6318128;28;20047;-77
2021/07/01 04:58:59;;;;;;;5.47;4.28;;;13.60;99.90;;;;;;6300269;28;20024;-77
2021/07/01 05:01:59;;;;;;;6.07;4.30;;;13.50;99.90;;;;;;6318083;28;20028;-76
2021/07/01 05:05:00;;;;;;;5.97;4.78;;;13.50;99.90;;;;;;6317922;28;20076;-76
2021/07/01 05:08:00;;;;;;;7.00;4.35;;;13.40;99.90;;;;;;6318387;28;20028;-76
2021/07/01 05:11:01;;;;;;;5.60;4.10;;;13.70;99.90;;;;;;6317725;28;20024;-76
2021/07/01 05:14:02;;;;;;;6.00;4.88;;;13.70;99.90;;;;;;6300098;28;20043;-76
2021/07/01 05:17:03;;;;;;;5.25;4.75;;;13.70;99.90;;;;;;6299864;28;20028;-76
2021/07/01 05:20:07;;;;;;;6.32;4.47;;;13.80;99.90;;;;;;6318390;28;20058;-76
2021/07/01 05:23:08;;;;;;;5.55;4.10;;;13.70;99.90;;;;;;6317963;28;20071;-74
2021/07/01 05:26:08;;;;;;;6.30;5.15;;;13.70;99.90;;;;;;6317790;28;20416;-73
2021/07/01 05:29:09;;;;;;;5.03;4.53;;;13.80;99.90;;;;;;6317968;28;20028;-74
2021/07/01 05:32:10;;;;;;;5.43;4.93;;;13.80;99.90;;;;;;6315584;28;20038;-74
2021/07/01 05:35:11;;;;;;;6.10;5.45;;;13.90;99.90;;;;;;6317026;28;20066;-74
2021/07/01 05:42:13;;;;;;;6.45;5.45;;;14.00;99.90;;;;;;6237515;28;20038;-74
2021/07/01 05:45:14;;;;;;;5.30;4.80;;;13.90;99.90;;;;;;6238234;28;20149;-74
2021/07/01 05:48:15;;;;;;;5.53;4.60;;;13.90;99.90;;;;;;6220857;28;20041;-74
2021/07/01 05:51:17;;;;;;;6.30;5.43;;;13.90;99.90;;;;;;6238744;28;20034;-74
2021/07/01 05:57:18;;;;;;;8.90;4.80;;;14.10;99.90;;;;;;6239302;28;20060;-75
2021/07/01 06:00:18;;;;;;;5.30;4.80;;;14.30;99.90;;;;;;6239216;28;20423;-74
2021/07/01 06:03:19;;;;;;;6.00;4.95;;;14.20;99.90;;;;;;6239190;28;20034;-73
2021/07/01 06:06:20;;;;;;;6.60;5.00;;;14.30;99.90;;;;;;6239236;28;20062;-74
2021/07/01 06:09:22;;;;;;;6.63;5.05;;;14.20;99.90;;;;;;6206435;28;20619;-74
2021/07/01 06:12:23;;;;;;;7.35;5.63;;;14.30;99.90;;;;;;6198732;28;20042;-74
2021/07/01 06:15:24;;;;;;;6.45;5.32;;;14.40;99.90;;;;;;6214654;28;20758;-74
2021/07/01 06:18:25;;;;;;;6.50;5.57;;;14.40;99.90;;;;;;6226232;28;20035;-75
2021/07/01 06:21:25;;;;;;;7.13;6.43;;;14.50;99.90;;;;;;6316772;28;20028;-74
2021/07/01 06:24:26;;;;;;;9.30;5.97;;;14.50;99.90;;;;;;6302634;28;20432;-74
2021/07/01 06:27:37;;;;;;;8.88;6.63;;;14.60;99.90;;;;;;6301326;28;20316;-74
2021/07/01 06:30:39;;;;;;;8.05;6.38;;;14.60;99.90;;;;;;6303709;28;20066;-74
2021/07/01 06:33:42;;;;;;;8.30;6.47;;;14.60;99.90;;;;;;6322023;28;20055;-74
2021/07/01 06:36:43;;;;;;;8.52;6.47;;;14.60;99.90;;;;;;6321563;28;20028;-74
2021/07/01 06:39:43;;;;;;;6.97;6.05;;;14.60;99.90;;;;;;6321780;28;20027;-74
2021/07/01 06:42:50;;;;;;;10.05;6.55;;;14.50;99.90;;;;;;6303257;28;20024;-74
2021/07/01 06:45:50;;;;;;;8.02;6.25;;;14.50;99.90;;;;;;6299889;28;20040;-74
2021/07/01 06:48:51;;;;;;;6.85;6.15;;;14.50;99.90;;;;;;6283660;28;20035;-74
2021/07/01 06:51:52;;;;;;;6.85;6.15;;;14.50;99.90;;;;;;6318874;28;20055;-74
2021/07/01 06:54:52;;;;;;;8.20;7.25;;;14.60;99.90;;;;;;6320539;28;20063;-74
2021/07/01 06:57:54;;;;;;;8.43;7.00;;;14.80;99.90;;;;;;6285929;28;20458;-74
2021/07/01 07:00:56;;;;;;;7.57;5.68;;;14.70;99.90;;;;;;6320588;28;20043;-73
2021/07/01 07:03:57;;;;;;;7.82;6.20;;;14.70;99.90;;;;;;6302902;28;20044;-74
2021/07/01 07:06:57;;;;;;;9.40;6.90;;;14.70;99.90;;;;;;6302593;28;20066;-74
2021/07/01 07:10:02;;;;;;;9.60;7.15;;;14.60;99.90;;;;;;6320971;28;20396;-74
2021/07/01 07:13:02;;;;;;;8.23;7.15;;;14.60;99.90;;;;;;6320644;28;20027;-75
2021/07/01 07:16:03;;;;;;;8.73;6.97;;;14.60;99.90;;;;;;6320607;28;20024;-74
2021/07/01 07:19:04;;;;;;;7.00;6.30;;;14.70;99.90;;;;;;6320108;28;20355;-74
2021/07/01 07:22:05;;;;;;;8.82;7.80;;;14.70;99.90;;;;;;6320146;28;20115;-75
2021/07/01 07:25:07;;;;;;;8.98;7.75;;;15.10;99.90;;;;;;6301972;28;20112;-75
2021/07/01 07:28:08;;;;;;;;;;;15.20;99.90;;;;;;6320768;28;20024;-74
2021/07/01 07:31:10;;;;;;;8.27;6.25;;;15.60;99.90;;;;;;6302135;28;20369;-75
2021/07/01 07:34:11;;;;;;;;;;;15.70;99.90;;;;;;6320299;28;20032;-74
2021/07/01 07:37:12;;;;;;;7.72;5.50;;;;;;;;;;6320165;28;19904;-75
2021/07/01 07:40:13;;;;;;;6.72;5.82;;;;;;;;;;6301924;28;20032;-75
2021/07/01 07:43:13;;;;;;;6.50;5.30;;;18.10;99.90;;;;;;6318710;28;20020;-75
2021/07/01 07:46:19;;;;;;;7.22;5.18;;;19.20;99.90;;;;;;6319824;28;20347;-75
2021/07/01 07:49:20;;;;;;;6.50;5.13;;;;;;;;;;6301489;28;20106;-75
2021/07/01 07:52:21;;;;;;;7.28;4.78;;;;;;;;;;6319386;28;20039;-75
2021/07/01 07:55:22;;;;;;;5.72;5.05;;;21.40;99.90;;;;;;6301076;28;20392;-76
2021/07/01 07:58:23;;;;;;;7.50;4.93;;;22.10;99.70;;;;;;6319678;28;20032;-75
2021/07/01 08:01:24;;;;;;;6.57;4.45;;;22.20;99.10;;;;;;6319738;28;20137;-76
2021/07/01 08:04:24;;;;;;;5.78;4.28;;;21.80;98.90;;;;;;6301143;28;20038;-75
2021/07/01 08:07:25;;;;;;;5.00;4.30;;;21.60;98.50;;;;;;6301062;28;20115;-75
2021/07/01 08:10:31;;;;;;;4.68;4.13;;;21.10;99.70;;;;;;6284414;28;20477;-75
2021/07/01 08:13:32;;;;;;;4.63;4.20;;;20.60;99.90;;;;;;6319411;28;20028;-75
2021/07/01 08:16:33;;;;;;;5.15;4.22;;;19.90;99.90;;;;;;6318885;28;20081;-75
2021/07/01 08:19:35;;;;;;;5.57;3.83;;;19.80;99.90;;;;;;6300940;28;20032;-77
2021/07/01 08:22:36;;;;;;;5.95;4.28;;;19.40;99.90;;;;;;6319006;28;20042;-75
2021/07/01 08:25:37;;;;;;;5.00;4.50;;;19.00;99.90;;;;;;6284156;28;20064;-74
2021/07/01 08:28:38;;;;;;;4.50;4.10;;;18.70;99.90;;;;;;6300445;28;20043;-74
2021/07/01 08:31:41;;;;;;;4.30;3.90;;;18.60;99.90;;;;;;6318550;28;20385;-74
2021/07/01 08:34:42;;;;;;;6.10;4.75;;;18.60;99.90;;;;;;6267481;28;20541;-74
2021/07/01 08:37:45;;;;;;;6.07;4.50;;;18.60;99.90;;;;;;6318547;28;20031;-75
2021/07/01 08:40:49;;;;;;;8.38;4.43;;;18.30;99.90;;;;;;6317624;28;20047;-74
2021/07/01 08:43:53;;;;;;;6.45;4.55;;;18.20;99.90;;;;;;6318960;28;20064;-75
2021/07/01 08:47:10;;;;;;;4.63;4.15;;;18.10;99.90;;;;;;6317572;28;20028;-75
2021/07/01 08:50:16;;;;;;;5.45;4.10;;;19.10;99.90;;;;;;6318619;28;20032;-75
2021/07/01 08:53:36;;;;;;;4.72;3.80;;;19.90;99.90;;;;;;6318166;28;20535;-74
2021/07/01 08:56:37;;;;;;;4.53;3.80;;;19.80;99.90;;;;;;6300976;28;20480;-75
2021/07/01 08:59:41;;;;;;;4.70;4.13;;;19.50;99.90;;;;;;6283411;28;20115;-75
2021/07/01 09:03:04;;;;;;;4.15;3.72;;;19.30;99.90;;;;;;6318043;28;20149;-74
2021/07/01 09:06:05;;;;;;;3.90;3.55;;;;;;;;;;6317797;28;20036;-75
2021/07/01 09:09:08;;;;;;;4.22;3.83;;;19.10;99.90;;;;;;6299061;28;20055;-76
2021/07/01 09:12:08;;;;;;;4.78;3.50;;;19.20;99.90;;;;;;6316967;28;20065;-76
2021/07/01 09:15:10;;;;;;;5.18;4.20;;;19.00;99.90;;;;;;6299580;28;20032;-78
2021/07/01 09:18:10;;;;;;;5.28;4.10;;;18.90;99.90;;;;;;6298252;28;20028;-74
2021/07/01 09:21:12;;;;;;;6.40;4.22;;;18.80;99.90;;;;;;6282100;28;20086;-74
2021/07/01 09:24:14;;;;;;;5.38;4.40;;;18.60;99.90;;;;;;6317572;28;20571;-74
2021/07/01 09:27:14;;;;;;;5.13;4.63;;;18.70;99.90;;;;;;6317684;28;20059;-74
2021/07/01 09:30:16;;;;;;;6.65;4.32;;;18.60;99.90;;;;;;6299551;28;20028;-75
2021/07/01 09:33:17;;;;;;;6.05;4.85;;;18.70;99.90;;;;;;6317431;28;20042;-75
2021/07/01 09:36:24;;;;;;;6.22;4.45;;;19.10;99.90;;;;;;6316682;28;20028;-74
2021/07/01 09:39:25;;;;;;;6.50;4.28;;;19.00;99.90;;;;;;6317090;28;20032;-75
2021/07/01 09:42:25;;;;;;;6.10;4.07;;;19.40;99.90;;;;;;6299473;28;20381;-75
2021/07/01 09:45:26;;;;;;;5.50;4.47;;;19.40;99.90;;;;;;6282749;28;20067;-75
2021/07/01 09:48:30;;;;;;;7.03;5.28;;;19.40;99.90;;;;;;6317408;28;20251;-74
2021/07/01 09:51:31;;;;;;;5.20;4.45;;;19.60;99.90;;;;;;6316912;28;20064;-75
2021/07/01 09:54:33;;;;;;;5.40;4.63;;;18.90;99.90;;;;;;6299087;28;20442;-75
2021/07/01 09:57:38;;;;;;;5.50;4.80;;;18.50;99.90;;;;;;6319520;28;20119;-74
2021/07/01 10:00:39;;;;;;;7.53;6.22;;;18.10;99.90;;;;;;6322344;28;20119;-74
2021/07/01 10:03:53;;;;;;;7.90;5.47;;;18.10;99.90;;;;;;6322293;28;20030;-75
2021/07/01 10:07:09;;;;;;;8.13;5.50;;;19.40;99.90;;;;;;6321987;28;20032;-75
2021/07/01 10:10:11;;;;;;;6.70;5.60;;;19.70;99.90;;;;;;6304159;28;20163;-74
2021/07/01 10:13:12;;;;;;;6.93;5.32;;;19.80;99.90;;;;;;6321775;28;20085;-75
2021/07/01 10:16:13;;;;;;;6.88;4.70;;;20.30;99.00;;;;;;6321914;28;20028;-74
2021/07/01 10:19:23;;;;;;;5.20;4.70;;;21.40;98.30;;;;;;6286951;28;20066;-75
2021/07/01 10:22:24;;;;;;;7.20;5.25;;;21.20;96.90;;;;;;6321897;28;20063;-75
2021/07/01 10:25:31;;;;;;;7.38;5.57;;;20.70;97.10;;;;;;6301552;28;20056;-74
2021/07/01 10:28:32;;;;;;;5.80;4.78;;;20.30;98.90;;;;;;6301859;28;20020;-75
2021/07/01 10:31:59;;;;;;;6.07;5.30;;;20.00;99.20;;;;;;6286681;28;20492;-75
2021/07/01 10:34:59;;;;;;;5.57;4.82;;;20.30;97.70;;;;;;6320013;28;20055;-74
2021/07/01 10:38:11;;;;;;;6.65;5.38;;;20.30;98.90;;;;;;6321501;28;20028;-74
2021/07/01 10:41:12;;;;;;;5.37;4.60;;;20.40;97.50;;;;;;6321506;28;20077;-74
2021/07/01 10:44:23;;;;;;;7.38;5.00;;;19.30;99.20;;;;;;6302967;28;20131;-75
2021/07/01 10:47:31;;;;;;;7.38;6.10;;;19.40;99.90;;;;;;6321116;28;20060;-74
2021/07/01 10:50:31;;;;;;;6.50;5.32;;;18.90;99.90;;;;;;6321024;28;20096;-75
2021/07/01 10:53:40;;;;;;;7.05;5.50;;;18.70;99.90;;;;;;6303482;28;20474;-74
2021/07/01 10:56:43;;;;;;;6.85;6.13;;;18.80;99.90;;;;;;6321172;28;20162;-75
2021/07/01 10:59:49;;;;;;;6.85;5.75;;;20.50;99.90;;;;;;6303075;28;20027;-74
2021/07/01 11:02:50;;;;;;;6.30;5.70;;;20.70;99.90;;;;;;6320531;28;20028;-75
2021/07/01 11:05:50;;;;;;;6.18;5.28;;;21.60;99.90;;;;;;6302865;28;20146;-75
2021/07/01 11:08:53;;;;;;;7.57;5.35;;;21.40;99.90;;;;;;6301779;28;20028;-75
2021/07/01 11:12:01;;;;;;;8.65;5.20;;;20.80;99.90;;;;;;6320706;28;20040;-75
2021/07/01 11:15:05;;;;;;;7.57;4.97;;;20.30;99.90;;;;;;6320883;28;20051;-75
2021/07/01 11:18:11;;;;;;;5.47;4.53;;;19.80;99.90;;;;;;6302266;28;20044;-75
2021/07/01 11:21:15;;;;;;;6.35;5.10;;;19.80;96.80;;;;;;6320607;28;20363;-75
2021/07/01 11:24:23;;;;;;;6.38;5.05;;;19.70;99.90;;;;;;6320443;28;20043;-75
2021/07/01 11:27:24;;;;;;;5.55;5.05;;;;;;;;;;6320070;28;20498;-75
2021/07/01 11:30:25;;;;;;;5.32;4.55;;;19.50;99.90;;;;;;6319884;28;20028;-75
2021/07/01 11:33:27;;;;;;;5.53;4.57;;;19.80;99.90;;;;;;6300799;28;20028;-75
2021/07/01 11:36:28;;;;;;;5.90;5.30;;;19.70;98.30;;;;;;6301698;28;20032;-75
2021/07/01 11:39:28;;;;;;;6.72;5.75;;;19.50;96.30;;;;;;6318775;28;20062;-76
2021/07/01 11:42:29;;;;;;;6.43;5.32;;;19.40;97.40;;;;;;6316941;28;20392;-84
2021/07/01 11:45:30;;;;;;;5.95;5.20;;;19.80;98.90;;;;;;6267043;28;20036;-78
2021/07/01 11:48:31;;;;;;;5.88;5.28;;;19.90;97.70;;;;;;6300858;28;20082;-78
2021/07/01 11:51:32;;;;;;;6.13;5.53;;;19.80;97.10;;;;;;6267916;28;20028;-78
2021/07/01 11:54:33;;;;;;;6.80;5.00;;;19.70;97.20;;;;;;6318934;28;20028;-78
2021/07/01 11:57:33;;;;;;;7.50;5.57;;;19.70;97.50;;;;;;6268718;28;20024;-78
2021/07/01 12:00:34;;;;;;;7.22;5.57;;;19.40;97.70;;;;;;6302283;28;20024;-77
2021/07/01 12:03:38;;;;;;;7.05;5.82;;;19.50;99.30;;;;;;6301288;28;20028;-77
2021/07/01 12:07:01;;;;;;;7.13;5.57;;;20.20;98.10;;;;;;6285048;28;20040;-77
2021/07/01 12:10:01;;;;;;;6.15;5.55;;;20.50;96.00;;;;;;6304107;28;20031;-78
2021/07/01 12:13:02;;;;;;;6.13;5.13;;;20.40;96.80;;;;;;6284982;28;20024;-82
2021/07/01 12:16:09;;;;;;;8.68;5.30;;;20.60;97.00;;;;;;6301520;28;20039;-79
2021/07/01 12:19:10;;;;;;;5.82;5.22;;;20.10;96.70;;;;;;6319100;28;20024;-77
2021/07/01 12:22:44;;;;;;;6.13;5.38;;;20.10;97.70;;;;;;6300788;28;20493;-78
2021/07/01 12:25:46;;;;;;;9.48;5.50;;;19.80;96.00;;;;;;6300669;28;20048;-76
2021/07/01 12:28:46;;;;;;;;;;;19.90;97.70;;;;;;6319847;28;20024;-81
2021/07/01 12:31:47;;;;;;;6.30;5.43;;;20.00;97.60;;;;;;6300044;28;19963;-83
2021/07/01 12:34:48;;;;;;;6.30;5.50;;;19.70;98.00;;;;;;6282069;28;20028;-80
2021/07/01 12:38:24;;;;;;;7.72;5.50;;;19.10;98.60;;;;;;6299322;28;20039;-77
2021/07/01 12:41:25;;;;;;;11.05;5.88;;;19.00;98.60;;;;;;6191478;28;20062;-77
2021/07/01 12:44:26;;;;;;;9.32;5.82;;;19.20;99.90;;;;;;6177160;28;20051;-78
2021/07/01 12:47:28;;;;;;;6.17;4.93;;;19.20;99.20;;;;;;6175780;28;20133;-77
2021/07/01 12:50:29;;;;;;;6.93;6.22;;;19.60;99.90;;;;;;6173495;28;20049;-77
2021/07/01 12:53:30;;;;;;;5.82;5.10;;;20.30;99.90;;;;;;6161207;28;20461;-77
2021/07/01 12:56:38;;;;;;;6.07;5.30;;;;;;;;;;6191611;28;20040;-77
2021/07/01 12:59:48;;;;;;;8.90;5.72;;;21.20;99.90;;;;;;6191439;28;20373;-77
2021/07/01 13:02:56;;;;;;;6.15;5.43;;;21.60;99.90;;;;;;6190846;28;20049;-80
2021/07/01 13:05:58;;;;;;;7.00;5.22;;;;;;;;;;6174710;28;20049;-82
2021/07/01 13:08:59;;;;;;;7.68;5.78;;;;;;;;;;6190865;28;20110;-80
2021/07/01 13:12:04;;;;;;;7.03;5.57;;;21.00;99.00;;;;;;6191009;28;20042;-82
2021/07/01 13:15:10;;;;;;;7.70;5.88;;;21.10;99.70;;;;;;6233240;28;20043;-78
2021/07/01 13:18:10;;;;;;;6.68;5.65;;;20.30;99.90;;;;;;6283640;28;20415;-78
2021/07/01 13:21:11;;;;;;;8.90;6.53;;;20.20;99.90;;;;;;6299580;28;20032;-79
2021/07/01 13:24:13;;;;;;;5.90;5.28;;;20.10;99.90;;;;;;6299094;28;20493;-79
2021/07/01 13:27:14;;;;;;;7.53;6.45;;;20.40;96.00;;;;;;6283194;28;20615;-78
2021/07/01 13:30:22;;;;;;;5.60;4.78;;;21.00;96.10;;;;;;6265982;28;20032;-80
2021/07/01 13:33:22;;;;;;;5.95;5.35;;;21.10;94.70;;;;;;6317227;28;20458;-79
2021/07/01 13:36:27;;;;;;;6.10;5.38;;;21.20;94.90;;;;;;6299288;28;20028;-81
2021/07/01 13:39:31;;;;;;;5.00;4.50;;;21.10;94.90;;;;;;6317509;28;20036;-79
2021/07/01 13:42:34;;;;;;;6.65;5.47;;;21.10;95.00;;;;;;6282816;28;20038;-82
2021/07/01 13:45:35;;;;;;;6.25;5.20;;;21.00;94.80;;;;;;6265599;28;20036;-83
2021/07/01 13:48:36;;;;;;;9.35;5.10;;;20.80;95.30;;;;;;6282917;28;20424;-80
2021/07/01 13:51:37;;;;;;;9.05;5.65;;;20.60;95.00;;;;;;6316930;28;20197;-80
2021/07/01 13:54:38;;;;;;;6.82;5.30;;;21.00;96.20;;;;;;6283174;28;20114;-79
2021/07/01 13:57:43;;;;;;;7.00;5.35;;;21.50;95.80;;;;;;6282494;28;20024;-79
2021/07/01 14:00:45;;;;;;;6.78;5.10;;;21.40;94.60;;;;;;6282869;28;20024;-79
2021/07/01 14:03:46;;;;;;;6.32;5.32;;;21.40;94.60;;;;;;6316856;28;20036;-79
2021/07/01 14:06:46;;;;;;;7.72;5.32;;;21.40;94.90;;;;;;6299225;28;20074;-79
2021/07/01 14:09:47;;;;;;;6.20;5.60;;;21.30;95.20;;;;;;6282266;28;20043;-79
2021/07/01 14:12:48;;;;;;;8.65;5.38;;;21.30;95.00;;;;;;6281931;28;20039;-78
2021/07/01 14:15:48;;;;;;;5.20;4.50;;;21.10;94.80;;;;;;6282368;28;20056;-78
2021/07/01 14:18:55;;;;;;;8.75;5.97;;;21.30;95.30;;;;;;6282005;28;20024;-81
2021/07/01 14:22:03;;;;;;;6.28;5.18;;;21.40;93.00;;;;;;6316625;28;20024;-78
2021/07/01 14:25:26;;;;;;;7.38;6.03;;;21.80;93.60;;;;;;6298514;28;20095;-78
2021/07/01 14:28:31;;;;;;;8.18;5.85;;;22.10;93.00;;;;;;6298914;28;20032;-80
2021/07/01 14:31:38;;;;;;;6.30;5.63;;;22.20;94.50;;;;;;6316611;28;20024;-79
2021/07/01 14:34:43;;;;;;;7.80;5.60;;;21.90;94.20;;;;;;6317130;28;20032;-79
2021/07/01 14:37:43;;;;;;;9.70;5.78;;;22.10;93.40;;;;;;6299168;28;20347;-80
2021/07/01 14:40:58;;;;;;;7.25;5.22;;;22.30;93.60;;;;;;6298606;28;20028;-79
2021/07/01 14:44:09;;;;;;;7.55;5.90;;;22.10;92.50;;;;;;6299972;28;20055;-85
2021/07/01 14:47:14;;;;;;;10.50;5.85;;;21.90;92.80;;;;;;6287016;28;20039;-82
2021/07/01 14:50:16;;;;;;;7.60;5.75;;;22.30;92.80;;;;;;6286291;28;20024;-79
2021/07/01 14:53:33;;;;;;;7.22;6.18;;;22.40;92.80;;;;;;6286664;28;20059;-78
2021/07/01 14:56:57;;;;;;;7.15;5.97;;;22.60;92.10;;;;;;6302468;28;20024;-82
2021/07/01 15:00:03;;;;;;;6.90;5.65;;;20.60;90.10;;;;;;6286249;28;20029;-77
2021/07/01 15:03:08;;;;;;;7.65;6.10;;;22.20;92.80;;;;;;6286293;28;20032;-77
2021/07/01 15:06:12;;;;;;;6.88;6.18;;;22.40;91.40;;;;;;6286165;28;20043;-78
2021/07/01 15:09:15;;;;;;;7.80;6.50;;;22.50;91.40;;;;;;6320993;28;20121;-77
2021/07/01 15:12:18;;;;;;;7.72;6.90;;;22.70;91.70;;;;;;6285837;28;20036;-80
2021/07/01 15:15:23;;;;;;;9.05;7.57;;;22.80;89.00;;;;;;6302349;28;20440;-81
2021/07/01 15:18:24;;;;;;;7.80;6.95;;;22.90;88.40;;;;;;6270411;28;20127;-79
2021/07/01 15:21:24;;;;;;;8.02;7.22;;;23.10;91.60;;;;;;6320319;28;20025;-79
2021/07/01 15:24:25;;;;;;;7.93;6.70;;;23.20;91.30;;;;;;6320539;28;20081;-78
2021/07/01 15:27:26;;;;;;;10.30;7.18;;;24.80;98.10;;;;;;6319853;28;20139;-76
2021/07/01 15:30:27;;;;;;;8.02;7.20;;;22.90;98.80;;;;;;6285706;28;20028;-81
2021/07/01 15:33:28;;;;;;;9.10;7.75;;;22.70;95.90;;;;;;6285296;28;20044;-79
2021/07/01 15:36:28;;;;;;;10.05;8.52;;;22.40;99.90;;;;;;6320031;28;20074;-78
2021/07/01 15:39:29;;;;;;;10.48;7.88;;;22.30;99.90;;;;;;6285795;28;20039;-78
2021/07/01 15:42:29;;;;;;;9.60;8.30;;;22.20;99.90;;;;;;6302319;28;20036;-77
2021/07/01 15:45:30;;;;;;;9.98;8.27;;;22.10;99.90;;;;;;6302260;28;20111;-84
2021/07/01 15:48:32;;;;;;;9.75;8.75;;;22.00;95.30;;;;;;6268568;28;20422;-84
2021/07/01 15:51:33;;;;;;;10.77;7.78;;;;;;;;;;6301880;28;20035;-78
2021/07/01 15:54:34;;;;;;;10.75;8.05;;;22.00;99.90;;;;;;6300630;28;20111;-80
2021/07/01 15:57:36;;;;;;;13.25;7.85;;;;;;;;;;6301772;28;20485;-86
2021/07/01 16:00:36;;;;;;;9.00;8.07;;;22.40;95.80;;;;;;6285258;28;20064;-83
2021/07/01 16:03:37;;;;;;;10.32;8.93;;;22.30;90.20;;;;;;6267052;28;20298;-84
2021/07/01 16:06:41;;;;;;;10.82;8.27;;;22.20;90.40;;;;;;6268153;28;20044;-78
2021/07/01 16:09:42;;;;;;;12.93;8.45;;;22.50;97.00;;;;;;6285087;28;20020;-81
2021/07/01 16:12:43;;;;;;;11.20;8.65;;;22.20;90.60;;;;;;6284877;28;20389;-84